This is the latest recevied weather packets stored in our database for station/object KB2SKP. If no packets are shown the sender has not sent any weather packets the latest 10 day(s).
| Time | Temp. | Humidity | Pressure | Rain* | Wind** | Luminosity | Snow |
|---|---|---|---|---|---|---|---|
| 1777299755 | 14.44° C | 55% | 1021.5 hPa | 0 mm | - | 64 W/m² | - |
| 1777299452 | 13.89° C | 56% | 1021.6 hPa | 0 mm | - | 71 W/m² | - |
| 1777299150 | 13.89° C | 56% | 1021.4 hPa | 0 mm | - | 84 W/m² | - |
| 1777298847 | 13.33° C | 57% | 1021.4 hPa | 0 mm | - | 483 W/m² | - |
| 1777296722 | 12.78° C | 61% | 1021.1 hPa | 0 mm | - | 36 W/m² | - |
| 1777296412 | 12.78° C | 63% | 1021.3 hPa | 0 mm | - | 35 W/m² | - |
| 1777296109 | 11.67° C | 65% | 1021.1 hPa | 0 mm | - | 343 W/m² | - |
| 1777295805 | 11.67° C | 74% | 1021.1 hPa | 0 mm | - | 219 W/m² | - |
| 1777295503 | 11.67° C | 72% | 1021.1 hPa | 0 mm | - | 42 W/m² | - |
| 1777295200 | 11.67° C | 74% | 1021.1 hPa | 0 mm | - | 27 W/m² | - |
| 1777294898 | 11.67° C | 76% | 1021.1 hPa | 0 mm | - | 28 W/m² | - |
| 1777293377 | 9.44° C | 91% | 1021 hPa | 0 mm | - | 22 W/m² | - |
| 1777293073 | 8.89° C | 96% | 1020.8 hPa | 0 mm | - | 22 W/m² | - |
| 1777292772 | 8.89° C | 97% | 1020.8 hPa | 0 mm | - | 21 W/m² | - |
| 1777292468 | 8.89° C | 98% | 1020.5 hPa | 0 mm | - | 7 W/m² | - |
| 1777292165 | 8.33° C | 98% | 1020.5 hPa | 0 mm | - | 20 W/m² | - |
| 1777291861 | 7.78° C | 98% | 1020.4 hPa | 0 mm | - | 19 W/m² | - |
| 1777291558 | 6.67° C | 98% | 1020.3 hPa | 0 mm | - | 19 W/m² | - |
| 1777291255 | 6.67° C | 97% | 1020.3 hPa | 0 mm | - | 18 W/m² | - |
| 1777290951 | 6.11° C | 98% | 1020.5 hPa | 0 mm | - | 17 W/m² | - |
| 1777290649 | 5.56° C | 97% | 1020.3 hPa | 0 mm | - | 17 W/m² | - |
| 1777290345 | 5° C | 97% | 1020.1 hPa | 0 mm | - | 17 W/m² | - |
| 1777289433 | 3.89° C | 97% | 1019.8 hPa | 0 mm | - | 14 W/m² | - |
| 1777289130 | 3.89° C | 97% | 1019.8 hPa | 0 mm | - | 13 W/m² | - |
| 1777288826 | 3.89° C | 97% | 1019.8 hPa | 0 mm | - | 13 W/m² | - |
* Rain latest hour (hover to see other rain measurements)
** Current wind speed in m/s (hover to see current wind gust speed)